sensor_id;sensor_type;location;lat;lon;timestamp;P1;durP1;ratioP1;P2;durP2;ratioP2
75772;SDS011;64381;0.000;0.000;2024-02-23T00:01:39;3.22;;;1.15;;
75772;SDS011;64381;0.000;0.000;2024-02-23T00:04:04;2.60;;;1.20;;
75772;SDS011;64381;0.000;0.000;2024-02-23T00:06:29;2.70;;;1.07;;
75772;SDS011;64381;0.000;0.000;2024-02-23T00:08:55;2.63;;;1.20;;
75772;SDS011;64381;0.000;0.000;2024-02-23T00:11:23;2.90;;;1.30;;
75772;SDS011;64381;0.000;0.000;2024-02-23T00:13:48;2.90;;;1.27;;
75772;SDS011;64381;0.000;0.000;2024-02-23T00:16:14;3.20;;;1.40;;
75772;SDS011;64381;0.000;0.000;2024-02-23T00:18:39;3.00;;;1.33;;
75772;SDS011;64381;0.000;0.000;2024-02-23T00:21:04;2.90;;;1.20;;
75772;SDS011;64381;0.000;0.000;2024-02-23T00:23:29;2.90;;;1.17;;
75772;SDS011;64381;0.000;0.000;2024-02-23T00:25:55;2.70;;;1.10;;
75772;SDS011;64381;0.000;0.000;2024-02-23T00:28:20;2.80;;;1.30;;
75772;SDS011;64381;0.000;0.000;2024-02-23T00:30:45;3.00;;;1.17;;
75772;SDS011;64381;0.000;0.000;2024-02-23T00:33:10;2.70;;;1.30;;
75772;SDS011;64381;0.000;0.000;2024-02-23T00:35:36;2.93;;;1.43;;
75772;SDS011;64381;0.000;0.000;2024-02-23T00:38:01;2.77;;;1.27;;
75772;SDS011;64381;0.000;0.000;2024-02-23T00:40:26;2.93;;;1.30;;
75772;SDS011;64381;0.000;0.000;2024-02-23T00:42:51;2.97;;;1.10;;
75772;SDS011;64381;0.000;0.000;2024-02-23T00:45:16;2.97;;;1.10;;
75772;SDS011;64381;0.000;0.000;2024-02-23T00:47:42;3.13;;;1.20;;
75772;SDS011;64381;0.000;0.000;2024-02-23T00:50:08;2.72;;;1.00;;
75772;SDS011;64381;0.000;0.000;2024-02-23T00:52:33;2.70;;;1.08;;
75772;SDS011;64381;0.000;0.000;2024-02-23T00:54:59;2.63;;;1.00;;
75772;SDS011;64381;0.000;0.000;2024-02-23T00:57:25;2.80;;;1.40;;
75772;SDS011;64381;0.000;0.000;2024-02-23T00:59:50;2.70;;;1.17;;
75772;SDS011;64381;0.000;0.000;2024-02-23T01:02:15;2.90;;;1.10;;
75772;SDS011;64381;0.000;0.000;2024-02-23T01:04:40;2.90;;;1.13;;
75772;SDS011;64381;0.000;0.000;2024-02-23T01:07:06;2.70;;;1.00;;
75772;SDS011;64381;0.000;0.000;2024-02-23T01:09:31;2.93;;;1.20;;
75772;SDS011;64381;0.000;0.000;2024-02-23T01:11:56;2.53;;;1.20;;
75772;SDS011;64381;0.000;0.000;2024-02-23T01:14:21;2.90;;;1.30;;
75772;SDS011;64381;0.000;0.000;2024-02-23T01:16:46;2.40;;;0.93;;
75772;SDS011;64381;0.000;0.000;2024-02-23T01:19:12;2.60;;;1.07;;
75772;SDS011;64381;0.000;0.000;2024-02-23T01:21:37;2.50;;;1.00;;
75772;SDS011;64381;0.000;0.000;2024-02-23T01:24:02;2.53;;;1.10;;
75772;SDS011;64381;0.000;0.000;2024-02-23T01:26:28;2.80;;;1.15;;
75772;SDS011;64381;0.000;0.000;2024-02-23T01:28:53;2.70;;;1.17;;
75772;SDS011;64381;0.000;0.000;2024-02-23T01:31:18;2.93;;;1.30;;
75772;SDS011;64381;0.000;0.000;2024-02-23T01:33:43;2.73;;;1.07;;
75772;SDS011;64381;0.000;0.000;2024-02-23T01:36:09;2.60;;;1.13;;
75772;SDS011;64381;0.000;0.000;2024-02-23T01:38:34;2.63;;;1.20;;
75772;SDS011;64381;0.000;0.000;2024-02-23T01:41:00;2.83;;;1.10;;
75772;SDS011;64381;0.000;0.000;2024-02-23T01:43:25;2.77;;;1.10;;
75772;SDS011;64381;0.000;0.000;2024-02-23T01:45:50;2.70;;;1.10;;
75772;SDS011;64381;0.000;0.000;2024-02-23T01:48:16;2.80;;;1.20;;
75772;SDS011;64381;0.000;0.000;2024-02-23T01:50:42;2.70;;;1.10;;
75772;SDS011;64381;0.000;0.000;2024-02-23T01:53:08;2.75;;;1.10;;
75772;SDS011;64381;0.000;0.000;2024-02-23T01:55:35;2.72;;;1.15;;
75772;SDS011;64381;0.000;0.000;2024-02-23T01:58:01;2.75;;;1.10;;
75772;SDS011;64381;0.000;0.000;2024-02-23T02:00:27;2.70;;;1.10;;
75772;SDS011;64381;0.000;0.000;2024-02-23T02:02:54;2.47;;;1.00;;
75772;SDS011;64381;0.000;0.000;2024-02-23T02:05:19;3.03;;;1.20;;
75772;SDS011;64381;0.000;0.000;2024-02-23T02:07:45;2.87;;;1.33;;
75772;SDS011;64381;0.000;0.000;2024-02-23T02:10:12;2.60;;;0.90;;
75772;SDS011;64381;0.000;0.000;2024-02-23T02:12:37;2.80;;;1.00;;
75772;SDS011;64381;0.000;0.000;2024-02-23T02:15:03;2.83;;;1.20;;
75772;SDS011;64381;0.000;0.000;2024-02-23T02:17:29;2.95;;;1.10;;
75772;SDS011;64381;0.000;0.000;2024-02-23T02:19:54;2.80;;;1.20;;
75772;SDS011;64381;0.000;0.000;2024-02-23T02:22:19;2.70;;;1.00;;
75772;SDS011;64381;0.000;0.000;2024-02-23T02:24:45;2.50;;;1.00;;
75772;SDS011;64381;0.000;0.000;2024-02-23T02:27:10;2.60;;;1.00;;
75772;SDS011;64381;0.000;0.000;2024-02-23T02:29:35;2.40;;;0.93;;
75772;SDS011;64381;0.000;0.000;2024-02-23T02:32:01;2.60;;;1.30;;
75772;SDS011;64381;0.000;0.000;2024-02-23T02:34:26;2.50;;;0.93;;
75772;SDS011;64381;0.000;0.000;2024-02-23T02:36:51;2.70;;;1.10;;
75772;SDS011;64381;0.000;0.000;2024-02-23T02:39:16;2.60;;;1.10;;
75772;SDS011;64381;0.000;0.000;2024-02-23T02:41:42;2.60;;;1.27;;
75772;SDS011;64381;0.000;0.000;2024-02-23T02:44:07;2.97;;;1.37;;
75772;SDS011;64381;0.000;0.000;2024-02-23T02:46:32;2.55;;;1.10;;
75772;SDS011;64381;0.000;0.000;2024-02-23T02:48:58;2.80;;;1.07;;
75772;SDS011;64381;0.000;0.000;2024-02-23T02:51:23;2.80;;;1.17;;
75772;SDS011;64381;0.000;0.000;2024-02-23T02:53:48;2.50;;;1.10;;
75772;SDS011;64381;0.000;0.000;2024-02-23T02:56:13;2.80;;;1.20;;
75772;SDS011;64381;0.000;0.000;2024-02-23T02:58:38;3.13;;;1.20;;
75772;SDS011;64381;0.000;0.000;2024-02-23T03:01:04;2.53;;;1.10;;
75772;SDS011;64381;0.000;0.000;2024-02-23T03:03:29;2.60;;;1.00;;
75772;SDS011;64381;0.000;0.000;2024-02-23T03:05:54;2.60;;;1.10;;
75772;SDS011;64381;0.000;0.000;2024-02-23T03:08:19;2.60;;;1.20;;
75772;SDS011;64381;0.000;0.000;2024-02-23T03:10:44;2.60;;;1.00;;
75772;SDS011;64381;0.000;0.000;2024-02-23T03:13:10;2.60;;;1.00;;
75772;SDS011;64381;0.000;0.000;2024-02-23T03:15:35;2.53;;;1.10;;
75772;SDS011;64381;0.000;0.000;2024-02-23T03:18:00;2.67;;;1.10;;
75772;SDS011;64381;0.000;0.000;2024-02-23T03:20:25;2.70;;;1.00;;
75772;SDS011;64381;0.000;0.000;2024-02-23T03:22:50;2.87;;;1.20;;
75772;SDS011;64381;0.000;0.000;2024-02-23T03:25:16;2.90;;;1.20;;
75772;SDS011;64381;0.000;0.000;2024-02-23T03:27:41;2.73;;;1.10;;
75772;SDS011;64381;0.000;0.000;2024-02-23T03:30:06;2.50;;;1.00;;
75772;SDS011;64381;0.000;0.000;2024-02-23T03:32:32;2.77;;;1.10;;
75772;SDS011;64381;0.000;0.000;2024-02-23T03:34:57;2.63;;;1.17;;
75772;SDS011;64381;0.000;0.000;2024-02-23T03:37:22;2.70;;;1.30;;
75772;SDS011;64381;0.000;0.000;2024-02-23T03:39:47;2.90;;;1.27;;
75772;SDS011;64381;0.000;0.000;2024-02-23T03:42:13;2.40;;;1.07;;
75772;SDS011;64381;0.000;0.000;2024-02-23T03:44:38;2.67;;;1.03;;
75772;SDS011;64381;0.000;0.000;2024-02-23T03:47:03;3.00;;;1.10;;
75772;SDS011;64381;0.000;0.000;2024-02-23T03:49:28;2.60;;;1.30;;
75772;SDS011;64381;0.000;0.000;2024-02-23T03:51:53;3.07;;;1.30;;
75772;SDS011;64381;0.000;0.000;2024-02-23T03:54:19;2.70;;;1.20;;
75772;SDS011;64381;0.000;0.000;2024-02-23T03:56:44;2.70;;;1.20;;
75772;SDS011;64381;0.000;0.000;2024-02-23T03:59:09;2.57;;;1.17;;
75772;SDS011;64381;0.000;0.000;2024-02-23T04:01:35;2.80;;;1.13;;
75772;SDS011;64381;0.000;0.000;2024-02-23T04:04:04;2.37;;;1.00;;
75772;SDS011;64381;0.000;0.000;2024-02-23T04:06:29;2.63;;;1.00;;
75772;SDS011;64381;0.000;0.000;2024-02-23T04:08:54;2.40;;;0.93;;
75772;SDS011;64381;0.000;0.000;2024-02-23T04:11:19;2.70;;;1.10;;
75772;SDS011;64381;0.000;0.000;2024-02-23T04:13:45;2.50;;;0.90;;
75772;SDS011;64381;0.000;0.000;2024-02-23T04:16:10;2.63;;;1.00;;
75772;SDS011;64381;0.000;0.000;2024-02-23T04:18:35;2.50;;;1.03;;
75772;SDS011;64381;0.000;0.000;2024-02-23T04:21:00;2.50;;;1.00;;
75772;SDS011;64381;0.000;0.000;2024-02-23T04:23:26;2.40;;;1.10;;
75772;SDS011;64381;0.000;0.000;2024-02-23T04:25:51;2.63;;;1.30;;
75772;SDS011;64381;0.000;0.000;2024-02-23T04:28:16;2.60;;;1.10;;
75772;SDS011;64381;0.000;0.000;2024-02-23T04:30:41;2.33;;;0.97;;
75772;SDS011;64381;0.000;0.000;2024-02-23T04:33:06;2.40;;;0.97;;
75772;SDS011;64381;0.000;0.000;2024-02-23T04:35:31;2.60;;;1.20;;
75772;SDS011;64381;0.000;0.000;2024-02-23T04:37:57;2.50;;;1.00;;
75772;SDS011;64381;0.000;0.000;2024-02-23T04:40:22;2.40;;;0.93;;
75772;SDS011;64381;0.000;0.000;2024-02-23T04:42:47;2.40;;;1.00;;
75772;SDS011;64381;0.000;0.000;2024-02-23T04:45:12;2.60;;;0.90;;
75772;SDS011;64381;0.000;0.000;2024-02-23T04:47:38;2.80;;;1.00;;
75772;SDS011;64381;0.000;0.000;2024-02-23T04:50:03;2.60;;;1.00;;
75772;SDS011;64381;0.000;0.000;2024-02-23T04:52:29;2.53;;;1.10;;
75772;SDS011;64381;0.000;0.000;2024-02-23T04:54:54;2.47;;;1.00;;
75772;SDS011;64381;0.000;0.000;2024-02-23T04:57:19;2.53;;;0.90;;
75772;SDS011;64381;0.000;0.000;2024-02-23T04:59:44;2.70;;;1.00;;
75772;SDS011;64381;0.000;0.000;2024-02-23T05:02:09;2.40;;;0.90;;
75772;SDS011;64381;0.000;0.000;2024-02-23T05:04:35;2.40;;;0.90;;
75772;SDS011;64381;0.000;0.000;2024-02-23T05:07:00;2.70;;;0.90;;
75772;SDS011;64381;0.000;0.000;2024-02-23T05:09:25;2.67;;;0.90;;
75772;SDS011;64381;0.000;0.000;2024-02-23T05:11:50;2.60;;;1.00;;
75772;SDS011;64381;0.000;0.000;2024-02-23T05:14:15;2.57;;;1.00;;
75772;SDS011;64381;0.000;0.000;2024-02-23T05:16:41;2.47;;;0.93;;
75772;SDS011;64381;0.000;0.000;2024-02-23T05:19:06;2.60;;;0.90;;
75772;SDS011;64381;0.000;0.000;2024-02-23T05:21:31;2.40;;;0.97;;
75772;SDS011;64381;0.000;0.000;2024-02-23T05:23:56;2.63;;;0.97;;
75772;SDS011;64381;0.000;0.000;2024-02-23T05:26:21;2.50;;;0.90;;
75772;SDS011;64381;0.000;0.000;2024-02-23T05:28:47;2.40;;;0.97;;
75772;SDS011;64381;0.000;0.000;2024-02-23T05:31:12;2.50;;;1.00;;
75772;SDS011;64381;0.000;0.000;2024-02-23T05:33:37;2.53;;;1.00;;
75772;SDS011;64381;0.000;0.000;2024-02-23T05:36:03;2.50;;;1.00;;
75772;SDS011;64381;0.000;0.000;2024-02-23T05:38:28;2.50;;;1.00;;
75772;SDS011;64381;0.000;0.000;2024-02-23T05:40:53;2.40;;;1.00;;
75772;SDS011;64381;0.000;0.000;2024-02-23T05:43:19;2.73;;;1.10;;
75772;SDS011;64381;0.000;0.000;2024-02-23T05:45:44;2.40;;;0.90;;
75772;SDS011;64381;0.000;0.000;2024-02-23T05:48:09;2.53;;;1.10;;
75772;SDS011;64381;0.000;0.000;2024-02-23T05:50:34;2.43;;;1.00;;
75772;SDS011;64381;0.000;0.000;2024-02-23T05:52:59;2.70;;;1.00;;
75772;SDS011;64381;0.000;0.000;2024-02-23T05:55:25;2.47;;;1.00;;
75772;SDS011;64381;0.000;0.000;2024-02-23T05:57:50;2.43;;;1.03;;
75772;SDS011;64381;0.000;0.000;2024-02-23T06:00:15;2.30;;;0.80;;
75772;SDS011;64381;0.000;0.000;2024-02-23T06:02:41;2.60;;;1.00;;
75772;SDS011;64381;0.000;0.000;2024-02-23T06:05:06;2.40;;;1.00;;
75772;SDS011;64381;0.000;0.000;2024-02-23T06:07:32;2.47;;;0.90;;
75772;SDS011;64381;0.000;0.000;2024-02-23T06:09:57;2.40;;;1.02;;
75772;SDS011;64381;0.000;0.000;2024-02-23T06:12:23;2.37;;;0.90;;
75772;SDS011;64381;0.000;0.000;2024-02-23T06:14:50;2.40;;;1.10;;
75772;SDS011;64381;0.000;0.000;2024-02-23T06:17:16;2.80;;;1.20;;
75772;SDS011;64381;0.000;0.000;2024-02-23T06:19:41;2.60;;;1.20;;
75772;SDS011;64381;0.000;0.000;2024-02-23T06:22:06;2.43;;;1.00;;
75772;SDS011;64381;0.000;0.000;2024-02-23T06:24:31;2.50;;;1.00;;
75772;SDS011;64381;0.000;0.000;2024-02-23T06:26:57;2.30;;;0.97;;
75772;SDS011;64381;0.000;0.000;2024-02-23T06:29:22;2.63;;;1.00;;
75772;SDS011;64381;0.000;0.000;2024-02-23T06:31:47;2.80;;;1.00;;
75772;SDS011;64381;0.000;0.000;2024-02-23T06:34:12;3.03;;;1.00;;
75772;SDS011;64381;0.000;0.000;2024-02-23T06:36:37;2.30;;;0.93;;
75772;SDS011;64381;0.000;0.000;2024-02-23T06:39:03;2.50;;;1.00;;
75772;SDS011;64381;0.000;0.000;2024-02-23T06:41:28;2.40;;;0.90;;
75772;SDS011;64381;0.000;0.000;2024-02-23T06:43:54;2.40;;;0.97;;
75772;SDS011;64381;0.000;0.000;2024-02-23T06:46:19;2.40;;;1.00;;
75772;SDS011;64381;0.000;0.000;2024-02-23T06:48:45;2.60;;;1.00;;
75772;SDS011;64381;0.000;0.000;2024-02-23T06:51:10;2.85;;;1.08;;
75772;SDS011;64381;0.000;0.000;2024-02-23T06:53:35;2.50;;;1.00;;
75772;SDS011;64381;0.000;0.000;2024-02-23T06:56:01;2.30;;;0.90;;
75772;SDS011;64381;0.000;0.000;2024-02-23T06:58:26;2.60;;;1.10;;
75772;SDS011;64381;0.000;0.000;2024-02-23T07:00:52;2.40;;;1.00;;
75772;SDS011;64381;0.000;0.000;2024-02-23T07:03:17;2.27;;;0.90;;
75772;SDS011;64381;0.000;0.000;2024-02-23T07:05:43;2.50;;;0.90;;
75772;SDS011;64381;0.000;0.000;2024-02-23T07:08:08;2.50;;;1.00;;
75772;SDS011;64381;0.000;0.000;2024-02-23T07:10:33;2.60;;;1.00;;
75772;SDS011;64381;0.000;0.000;2024-02-23T07:12:58;2.40;;;0.90;;
75772;SDS011;64381;0.000;0.000;2024-02-23T07:15:24;2.40;;;1.00;;
75772;SDS011;64381;0.000;0.000;2024-02-23T07:17:49;2.30;;;0.87;;
75772;SDS011;64381;0.000;0.000;2024-02-23T07:20:14;2.50;;;0.97;;
75772;SDS011;64381;0.000;0.000;2024-02-23T07:22:42;2.53;;;1.00;;
75772;SDS011;64381;0.000;0.000;2024-02-23T07:25:08;2.30;;;0.90;;
75772;SDS011;64381;0.000;0.000;2024-02-23T07:27:33;2.40;;;1.00;;
75772;SDS011;64381;0.000;0.000;2024-02-23T07:29:59;2.33;;;0.80;;
75772;SDS011;64381;0.000;0.000;2024-02-23T07:32:24;2.40;;;1.00;;
75772;SDS011;64381;0.000;0.000;2024-02-23T07:34:50;2.70;;;1.10;;
75772;SDS011;64381;0.000;0.000;2024-02-23T07:37:15;2.20;;;0.90;;
75772;SDS011;64381;0.000;0.000;2024-02-23T07:39:40;2.47;;;0.90;;
75772;SDS011;64381;0.000;0.000;2024-02-23T07:42:06;2.60;;;1.10;;
75772;SDS011;64381;0.000;0.000;2024-02-23T07:44:31;2.53;;;1.00;;
75772;SDS011;64381;0.000;0.000;2024-02-23T07:46:57;2.13;;;0.75;;
75772;SDS011;64381;0.000;0.000;2024-02-23T07:49:22;2.40;;;0.90;;
75772;SDS011;64381;0.000;0.000;2024-02-23T07:51:47;2.40;;;0.90;;
75772;SDS011;64381;0.000;0.000;2024-02-23T07:54:13;2.30;;;0.83;;
75772;SDS011;64381;0.000;0.000;2024-02-23T07:56:38;2.30;;;0.90;;
75772;SDS011;64381;0.000;0.000;2024-02-23T07:59:03;2.40;;;0.80;;
75772;SDS011;64381;0.000;0.000;2024-02-23T08:01:28;2.47;;;0.90;;
75772;SDS011;64381;0.000;0.000;2024-02-23T08:03:54;2.20;;;0.80;;
75772;SDS011;64381;0.000;0.000;2024-02-23T08:06:19;2.40;;;0.90;;
75772;SDS011;64381;0.000;0.000;2024-02-23T08:08:44;2.20;;;0.70;;
75772;SDS011;64381;0.000;0.000;2024-02-23T08:11:09;2.40;;;0.90;;
75772;SDS011;64381;0.000;0.000;2024-02-23T08:13:35;2.30;;;1.00;;
75772;SDS011;64381;0.000;0.000;2024-02-23T08:16:00;2.40;;;0.90;;
75772;SDS011;64381;0.000;0.000;2024-02-23T08:18:25;2.20;;;0.80;;
75772;SDS011;64381;0.000;0.000;2024-02-23T08:20:51;2.20;;;0.77;;
75772;SDS011;64381;0.000;0.000;2024-02-23T08:23:16;2.33;;;0.90;;
75772;SDS011;64381;0.000;0.000;2024-02-23T08:25:42;2.20;;;0.80;;
75772;SDS011;64381;0.000;0.000;2024-02-23T08:28:07;2.40;;;0.70;;
75772;SDS011;64381;0.000;0.000;2024-02-23T08:30:33;2.33;;;0.90;;
75772;SDS011;64381;0.000;0.000;2024-02-23T08:32:58;2.30;;;0.80;;
75772;SDS011;64381;0.000;0.000;2024-02-23T08:35:23;2.40;;;0.90;;
75772;SDS011;64381;0.000;0.000;2024-02-23T08:37:49;2.30;;;1.00;;
75772;SDS011;64381;0.000;0.000;2024-02-23T08:40:14;2.43;;;0.80;;
75772;SDS011;64381;0.000;0.000;2024-02-23T08:42:39;2.47;;;0.82;;
75772;SDS011;64381;0.000;0.000;2024-02-23T08:45:05;2.40;;;0.90;;
75772;SDS011;64381;0.000;0.000;2024-02-23T08:47:30;2.43;;;0.90;;
75772;SDS011;64381;0.000;0.000;2024-02-23T08:49:55;2.20;;;0.80;;
75772;SDS011;64381;0.000;0.000;2024-02-23T08:52:21;2.07;;;0.70;;
75772;SDS011;64381;0.000;0.000;2024-02-23T08:54:46;2.40;;;0.90;;
75772;SDS011;64381;0.000;0.000;2024-02-23T08:57:11;2.50;;;1.00;;
75772;SDS011;64381;0.000;0.000;2024-02-23T08:59:36;2.40;;;0.90;;
75772;SDS011;64381;0.000;0.000;2024-02-23T09:02:02;2.50;;;0.83;;
75772;SDS011;64381;0.000;0.000;2024-02-23T09:04:27;2.20;;;0.73;;
75772;SDS011;64381;0.000;0.000;2024-02-23T09:06:52;2.40;;;0.80;;
75772;SDS011;64381;0.000;0.000;2024-02-23T09:09:17;2.30;;;0.80;;
75772;SDS011;64381;0.000;0.000;2024-02-23T09:11:43;2.23;;;0.70;;
75772;SDS011;64381;0.000;0.000;2024-02-23T09:14:08;2.33;;;0.90;;
75772;SDS011;64381;0.000;0.000;2024-02-23T09:16:33;2.33;;;0.90;;
75772;SDS011;64381;0.000;0.000;2024-02-23T09:18:58;2.30;;;0.80;;
75772;SDS011;64381;0.000;0.000;2024-02-23T09:21:23;2.13;;;0.80;;
75772;SDS011;64381;0.000;0.000;2024-02-23T09:23:49;2.07;;;0.77;;
75772;SDS011;64381;0.000;0.000;2024-02-23T09:26:14;2.20;;;0.80;;
75772;SDS011;64381;0.000;0.000;2024-02-23T09:28:39;2.40;;;0.90;;
75772;SDS011;64381;0.000;0.000;2024-02-23T09:31:04;2.20;;;0.80;;
75772;SDS011;64381;0.000;0.000;2024-02-23T09:33:30;2.50;;;1.00;;
75772;SDS011;64381;0.000;0.000;2024-02-23T09:35:55;2.83;;;0.90;;
75772;SDS011;64381;0.000;0.000;2024-02-23T09:38:21;2.35;;;0.80;;
75772;SDS011;64381;0.000;0.000;2024-02-23T09:40:47;2.80;;;1.00;;
75772;SDS011;64381;0.000;0.000;2024-02-23T09:43:12;2.20;;;0.80;;
75772;SDS011;64381;0.000;0.000;2024-02-23T09:45:39;2.28;;;0.80;;
75772;SDS011;64381;0.000;0.000;2024-02-23T09:48:04;2.13;;;0.80;;
75772;SDS011;64381;0.000;0.000;2024-02-23T09:50:32;2.17;;;0.80;;
75772;SDS011;64381;0.000;0.000;2024-02-23T09:52:58;2.13;;;0.73;;
75772;SDS011;64381;0.000;0.000;2024-02-23T09:55:23;1.92;;;0.63;;
75772;SDS011;64381;0.000;0.000;2024-02-23T09:57:50;2.40;;;0.90;;
75772;SDS011;64381;0.000;0.000;2024-02-23T10:00:17;2.17;;;0.82;;
75772;SDS011;64381;0.000;0.000;2024-02-23T10:02:42;2.07;;;0.70;;
75772;SDS011;64381;0.000;0.000;2024-02-23T10:05:08;2.40;;;0.90;;
75772;SDS011;64381;0.000;0.000;2024-02-23T10:07:35;2.67;;;0.80;;
75772;SDS011;64381;0.000;0.000;2024-02-23T10:10:00;2.70;;;0.90;;
75772;SDS011;64381;0.000;0.000;2024-02-23T10:12:25;2.40;;;0.80;;
75772;SDS011;64381;0.000;0.000;2024-02-23T10:14:50;2.53;;;0.80;;
75772;SDS011;64381;0.000;0.000;2024-02-23T10:17:16;2.30;;;0.70;;
75772;SDS011;64381;0.000;0.000;2024-02-23T10:19:41;2.17;;;0.77;;
75772;SDS011;64381;0.000;0.000;2024-02-23T10:22:06;2.23;;;0.83;;
75772;SDS011;64381;0.000;0.000;2024-02-23T10:24:31;2.40;;;0.90;;
75772;SDS011;64381;0.000;0.000;2024-02-23T10:26:57;2.40;;;0.90;;
75772;SDS011;64381;0.000;0.000;2024-02-23T10:29:22;2.20;;;0.80;;
75772;SDS011;64381;0.000;0.000;2024-02-23T10:31:48;2.50;;;0.90;;
75772;SDS011;64381;0.000;0.000;2024-02-23T10:34:17;2.50;;;0.90;;
75772;SDS011;64381;0.000;0.000;2024-02-23T10:36:44;2.10;;;0.75;;
75772;SDS011;64381;0.000;0.000;2024-02-23T10:39:10;2.20;;;0.80;;
75772;SDS011;64381;0.000;0.000;2024-02-23T10:41:36;2.30;;;0.90;;
75772;SDS011;64381;0.000;0.000;2024-02-23T10:44:01;2.40;;;0.80;;
75772;SDS011;64381;0.000;0.000;2024-02-23T10:46:28;2.40;;;0.90;;
75772;SDS011;64381;0.000;0.000;2024-02-23T10:48:54;2.20;;;0.80;;
75772;SDS011;64381;0.000;0.000;2024-02-23T10:51:21;2.85;;;0.80;;
75772;SDS011;64381;0.000;0.000;2024-02-23T10:53:46;2.20;;;0.90;;
75772;SDS011;64381;0.000;0.000;2024-02-23T10:56:13;2.03;;;0.70;;
75772;SDS011;64381;0.000;0.000;2024-02-23T10:58:38;2.20;;;0.70;;
75772;SDS011;64381;0.000;0.000;2024-02-23T11:01:05;2.60;;;0.80;;
75772;SDS011;64381;0.000;0.000;2024-02-23T11:03:33;2.30;;;0.80;;
75772;SDS011;64381;0.000;0.000;2024-02-23T11:06:01;2.40;;;0.88;;
75772;SDS011;64381;0.000;0.000;2024-02-23T11:08:30;2.10;;;0.73;;
75772;SDS011;64381;0.000;0.000;2024-02-23T11:10:57;2.10;;;0.70;;
75772;SDS011;64381;0.000;0.000;2024-02-23T11:13:38;2.20;;;0.80;;
75772;SDS011;64381;0.000;0.000;2024-02-23T11:16:05;2.30;;;0.80;;
75772;SDS011;64381;0.000;0.000;2024-02-23T11:18:31;2.10;;;0.63;;
75772;SDS011;64381;0.000;0.000;2024-02-23T11:20:59;2.30;;;0.70;;
75772;SDS011;64381;0.000;0.000;2024-02-23T11:23:25;2.10;;;0.70;;
75772;SDS011;64381;0.000;0.000;2024-02-23T11:28:48;1.92;;;0.60;;
75772;SDS011;64381;0.000;0.000;2024-02-23T11:31:14;2.10;;;0.73;;
75772;SDS011;64381;0.000;0.000;2024-02-23T11:33:40;2.10;;;0.70;;
75772;SDS011;64381;0.000;0.000;2024-02-23T11:36:12;2.00;;;0.70;;
75772;SDS011;64381;0.000;0.000;2024-02-23T11:38:47;2.40;;;0.80;;
75772;SDS011;64381;0.000;0.000;2024-02-23T11:41:13;2.08;;;0.70;;
75772;SDS011;64381;0.000;0.000;2024-02-23T11:43:38;2.17;;;0.70;;
75772;SDS011;64381;0.000;0.000;2024-02-23T11:46:04;2.17;;;0.70;;
75772;SDS011;64381;0.000;0.000;2024-02-23T11:48:29;2.20;;;0.70;;
75772;SDS011;64381;0.000;0.000;2024-02-23T11:50:55;2.30;;;0.80;;
75772;SDS011;64381;0.000;0.000;2024-02-23T11:53:20;2.30;;;0.70;;
75772;SDS011;64381;0.000;0.000;2024-02-23T11:55:45;2.13;;;0.70;;
75772;SDS011;64381;0.000;0.000;2024-02-23T11:58:10;2.10;;;0.60;;
75772;SDS011;64381;0.000;0.000;2024-02-23T12:00:35;1.97;;;0.60;;
75772;SDS011;64381;0.000;0.000;2024-02-23T12:03:01;2.10;;;0.70;;
75772;SDS011;64381;0.000;0.000;2024-02-23T12:05:26;3.07;;;0.70;;
75772;SDS011;64381;0.000;0.000;2024-02-23T12:07:51;2.70;;;0.80;;
75772;SDS011;64381;0.000;0.000;2024-02-23T12:10:17;3.90;;;0.83;;
75772;SDS011;64381;0.000;0.000;2024-02-23T12:12:42;6.10;;;0.90;;
75772;SDS011;64381;0.000;0.000;2024-02-23T12:15:08;4.97;;;0.90;;
75772;SDS011;64381;0.000;0.000;2024-02-23T12:17:35;3.03;;;0.60;;
75772;SDS011;64381;0.000;0.000;2024-02-23T12:20:01;3.78;;;0.82;;
75772;SDS011;64381;0.000;0.000;2024-02-23T12:22:27;3.73;;;0.63;;
75772;SDS011;64381;0.000;0.000;2024-02-23T12:24:52;5.13;;;0.90;;
75772;SDS011;64381;0.000;0.000;2024-02-23T12:27:17;4.97;;;0.80;;
75772;SDS011;64381;0.000;0.000;2024-02-23T12:29:50;3.53;;;0.70;;
75772;SDS011;64381;0.000;0.000;2024-02-23T12:32:22;3.13;;;0.90;;
75772;SDS011;64381;0.000;0.000;2024-02-23T12:34:47;2.27;;;0.70;;
75772;SDS011;64381;0.000;0.000;2024-02-23T12:37:16;3.40;;;0.90;;
75772;SDS011;64381;0.000;0.000;2024-02-23T12:39:42;2.97;;;0.60;;
75772;SDS011;64381;0.000;0.000;2024-02-23T12:42:08;2.38;;;0.80;;
75772;SDS011;64381;0.000;0.000;2024-02-23T12:44:33;2.80;;;0.80;;
75772;SDS011;64381;0.000;0.000;2024-02-23T12:46:58;2.83;;;0.90;;
75772;SDS011;64381;0.000;0.000;2024-02-23T12:49:24;2.20;;;0.60;;
75772;SDS011;64381;0.000;0.000;2024-02-23T12:51:49;2.43;;;0.80;;
75772;SDS011;64381;0.000;0.000;2024-02-23T12:54:14;3.67;;;0.87;;
75772;SDS011;64381;0.000;0.000;2024-02-23T12:56:40;2.70;;;1.07;;
75772;SDS011;64381;0.000;0.000;2024-02-23T12:59:05;2.67;;;0.80;;
75772;SDS011;64381;0.000;0.000;2024-02-23T13:01:30;2.33;;;0.70;;
75772;SDS011;64381;0.000;0.000;2024-02-23T13:03:55;3.10;;;0.80;;
75772;SDS011;64381;0.000;0.000;2024-02-23T13:06:21;2.77;;;0.70;;
75772;SDS011;64381;0.000;0.000;2024-02-23T13:08:46;3.73;;;0.60;;
75772;SDS011;64381;0.000;0.000;2024-02-23T13:11:11;2.13;;;0.70;;
75772;SDS011;64381;0.000;0.000;2024-02-23T13:13:36;2.80;;;0.80;;
75772;SDS011;64381;0.000;0.000;2024-02-23T13:16:02;2.30;;;0.70;;
75772;SDS011;64381;0.000;0.000;2024-02-23T13:18:27;4.53;;;0.75;;
75772;SDS011;64381;0.000;0.000;2024-02-23T13:20:52;3.10;;;0.90;;
75772;SDS011;64381;0.000;0.000;2024-02-23T13:23:17;2.97;;;0.80;;
75772;SDS011;64381;0.000;0.000;2024-02-23T13:25:44;2.77;;;0.60;;
75772;SDS011;64381;0.000;0.000;2024-02-23T13:28:09;3.03;;;0.70;;
75772;SDS011;64381;0.000;0.000;2024-02-23T13:30:35;2.67;;;0.75;;
75772;SDS011;64381;0.000;0.000;2024-02-23T13:33:01;2.35;;;0.73;;
75772;SDS011;64381;0.000;0.000;2024-02-23T13:35:27;2.00;;;0.67;;
75772;SDS011;64381;0.000;0.000;2024-02-23T13:37:52;2.37;;;0.70;;
75772;SDS011;64381;0.000;0.000;2024-02-23T13:40:18;2.65;;;0.70;;
75772;SDS011;64381;0.000;0.000;2024-02-23T13:42:43;3.03;;;0.70;;
75772;SDS011;64381;0.000;0.000;2024-02-23T13:45:09;2.20;;;0.80;;
75772;SDS011;64381;0.000;0.000;2024-02-23T13:47:34;2.20;;;0.77;;
75772;SDS011;64381;0.000;0.000;2024-02-23T13:50:00;2.53;;;0.70;;
75772;SDS011;64381;0.000;0.000;2024-02-23T13:52:26;2.67;;;0.70;;
75772;SDS011;64381;0.000;0.000;2024-02-23T13:54:52;2.20;;;0.60;;
75772;SDS011;64381;0.000;0.000;2024-02-23T13:57:17;3.03;;;0.70;;
75772;SDS011;64381;0.000;0.000;2024-02-23T13:59:43;2.03;;;0.60;;
75772;SDS011;64381;0.000;0.000;2024-02-23T14:02:08;2.58;;;0.70;;
75772;SDS011;64381;0.000;0.000;2024-02-23T14:04:33;2.43;;;0.70;;
75772;SDS011;64381;0.000;0.000;2024-02-23T14:06:59;2.33;;;0.70;;
75772;SDS011;64381;0.000;0.000;2024-02-23T14:09:24;2.20;;;0.63;;
75772;SDS011;64381;0.000;0.000;2024-02-23T14:11:49;1.83;;;0.60;;
75772;SDS011;64381;0.000;0.000;2024-02-23T14:14:14;2.43;;;0.70;;
75772;SDS011;64381;0.000;0.000;2024-02-23T14:16:40;2.20;;;0.63;;
75772;SDS011;64381;0.000;0.000;2024-02-23T14:19:05;2.63;;;0.80;;
75772;SDS011;64381;0.000;0.000;2024-02-23T14:21:30;2.40;;;0.60;;
75772;SDS011;64381;0.000;0.000;2024-02-23T14:23:56;2.03;;;0.73;;
75772;SDS011;64381;0.000;0.000;2024-02-23T14:26:21;2.40;;;0.60;;
75772;SDS011;64381;0.000;0.000;2024-02-23T14:28:47;2.45;;;0.73;;
75772;SDS011;64381;0.000;0.000;2024-02-23T14:31:12;2.40;;;0.80;;
75772;SDS011;64381;0.000;0.000;2024-02-23T14:33:37;2.23;;;0.70;;
75772;SDS011;64381;0.000;0.000;2024-02-23T14:36:02;2.20;;;0.60;;
75772;SDS011;64381;0.000;0.000;2024-02-23T14:38:28;1.90;;;0.50;;
75772;SDS011;64381;0.000;0.000;2024-02-23T14:40:53;2.10;;;0.80;;
75772;SDS011;64381;0.000;0.000;2024-02-23T14:43:18;1.77;;;0.60;;
75772;SDS011;64381;0.000;0.000;2024-02-23T14:45:43;2.90;;;0.60;;
75772;SDS011;64381;0.000;0.000;2024-02-23T14:48:09;3.23;;;0.67;;
75772;SDS011;64381;0.000;0.000;2024-02-23T14:50:34;2.20;;;0.70;;
75772;SDS011;64381;0.000;0.000;2024-02-23T14:52:59;2.00;;;0.60;;